View Sortable Currents For Network
ASOSCoCoRaHSCOOPDCPISU Soil MoistureOther
SCANMy FavoritesBy StateRWISRWIS SurfaceRWIS Traffic
RWIS SoilBy NWS WFOUSCRN
Select Network:
Include METARS:
Sort Order: Format:

Times shown are for timezone: America/Chicago. The local day summary is based on that timezone.
Table sorted by: (Observation Time)     Click on a column to sort it. Click on site ID for more information. You can download data from this network here and you can view daily summaries on this network.
ADD: ID Station Ob Time Present Wx Temps °F   Wind [knots] Precip Clouds
Air Hi Lo Dewp Feels RH % Alti Vsby Speed Drct Gust @ Time 1 Hour Today Level 1 Level 2 Level 3 Level 4
SFYSavanna08:44 AM303928 25 23 80 29.9 10 6W8 @ 01:53 AM0 CLR
MVNMOUNT VERNON08:42 AM434335 32 36 65 30.05 10 12SSW21.724405 @ 03:05 AM0 0 BKN 2900
M30Metropolis IL08:35 AM444441 31 39 59 30.12 10 8SSW15 @ 12:55 AM0 CLR
DNVDANVILLE08:35 AM393934 30 30 72 29.96 10 14G22SW22 @ 04:35 AM0 CLR
FWCFAIRFIELD08:35 AM414137 30 36 65 30.05 10 7SSW17 @ 03:15 AM0 CLR
FOAFLORA08:35 AM414136 32 34 70 30.04 10 11SSW22 @ 02:35 AM0 CLR
3LFLitchfield08:35 AM363631 32 29 85 30.01 10 8SW13 @ 12:55 AM0 CLR
C75LACON08:35 AM373933 32 29 82 29.93 10 10SW16 @ 12:15 AM0 CLR
C09MORRIS-WASHBURN08:35 AM363734 30 28 78 29.88 10 9WSW21 @ 02:55 AM0 CLR
DKBDE KALB08:35 AM323328 30 22 90 29.86 10 12G16W16 @ 08:35 AM0 CLR
GBGGALESBURG08:35 AM343931 32 27 90 29.95 10 8W11 @ 12:15 AM0 CLR
FEPFREEPORT08:35 AM313830 30 23 97 29.88 10 8W18 @ 12:55 AM0 CLR
IGQCHICAGO/LANSING08:35 AM363732 29 28 76 29.87 10 10SW22 @ 12:35 AM0 CLR
IKKKANKAKEE08:35 AM363735 29 28 76 29.91 10 10SW26 @ 12:55 AM0 CLR
VYSPERU08:35 AM363935 30 28 78 29.9 10 11G15W21 @ 12:55 AM0 CLR
PRGPARIS08:35 AM393935 32 30 76 29.99 10 16G20SSW23 @ 12:35 AM0 CLR
RPJRochelle08:35 AM313627 30 23 93 29.88 10 9W16 @ 12:15 AM0 CLR
AJGMount Carmel08:35 AM434338 31 35 62 30.05 10 15SSW19 @ 04:15 AM0 OVC 3400
CIRCairo08:35 AM434335 32 36 65 30.11 10 12G17WSW17 @ 08:15 AM0 SCT 3500
PPQPITTSFIELD08:35 AM394237 32 39 76 30 10 0N18 @ 12:35 AM0 CLR
SARSPARTA08:35 AM393936 32 34 77 30.06 10 6SSW21 @ 01:35 AM0 CLR
AAALincoln08:35 AM393934 32 35 75 29.95 10 5WSW18 @ 01:35 AM0 CLR
TAZTAYLORVILLE08:35 AM383834 32 30 79 29.98 10 11SW23 @ 03:15 AM0 CLR
IJXJACKSONVILLE08:35 AM393934 32 32 76 29.98 10 8WSW14 @ 08:15 AM0 CLR
JOTJOLIET08:35 AM384036 30 33 72 29.88 10 6WSW19 @ 12:55 AM0 CLR
06CChicago - Schaumburg08:35 AM353733 31 28 84 29.84 10 8WSW17 @ 12:15 AM0 CLR
TIPRANTOUL08:35 AM383834 31 28 77 29.93 10 16G20SW23 @ 01:35 AM0 CLR
MQBMACOMB MUNI08:35 AM364133 30 27 79 29.98 10 11W19 @ 01:35 AM0 CLR
1H2EFFINGHAM08:35 AM414137 32 34 70 30.02 10 12G16SSW16 @ 05:15 AM0 CLR
RSVRobinson08:35 AM414135 29 32 64 30.04 10 13G18SSW19 @ 03:55 AM0 CLR
I63Mount Sterling08:35 AM374135 30 30 75 29.97 10 9W20 @ 01:15 AM0 CLR
PNTPONTIAC08:30 AM373733 32 27 82 29.91 10 15WSW24 @ 12:10 AM0 CLR
CULCarmi08:15 AM454539 30 38 57 30.07 10 13G18SW20 @ 05:56 AM0 BKN 3600
BMIBLOOMINGTON/NORM07:56 AM333531 28 24 81 29.91 10 11SW22 @ 12:56 AM0 CLR
SQISTERLING ROCKFAL07:56 AM313829 29 20 92 29.89 10 13W13 @ 07:56 AM0 CLR
BLVBelleville - Scott AFB07:55 AM373834 31 34 79 30.01 10 3SSW9 @ 12:55 AM0 CLR
PIAPEORIA07:54 AM343630 28 28 78 29.93 10 6WSW14 @ 02:40 AM0 CLR
DECDECATUR07:54 AM363735 32 27 85 29.96 10 12SW25 @ 02:54 AM0 CLR
UINQUINCY07:54 AM354135 29 28 78 29.98 10 8W21 @ 12:35 AM0 CLR
RFDROCKFORD07:54 AM313931 26 23 82 29.86 10 7WSW18 @ 12:40 AM0 FEW 25000
CPSCAHOKIA/ST LOUIS07:53 AM394238 31 34 72 30.02 10 6WSW19 @ 02:53 AM0 CLR
LWVLAWRENCEVILLE07:53 AM404137 29 32 64 30.04 10 13SSW23 @ 04:15 AM0 CLR
CMICHAMPAIGN/URBANA07:53 AM373735 31 28 78 29.95 10 12SSW19 @ 02:05 AM0 CLR
MDWCHICAGO07:53 AM363935 26 29 67 29.85 10 8SW22 @ 03:53 AM0 FEW 15000 FEW 18000
MTOMATTOON/CHARLEST07:53 AM383837 29 M 70 29.98 10 N27 @ 01:23 AM0 CLR
MDHCARBONDALE/MURPH07:52 AM383937 31 33 76 30.08 10 6SSW27 @ 01:38 AM0 CLR
ARRCHICAGO/AURORA07:52 AM323732 26 24 79 29.85 10 9SW22 @ 12:05 AM0 CLR
DPACHICAGO/DUPAGE07:52 AM323832 25 24 75 29.84 10 8SW26 @ 12:25 AM0 CLR
MLIMoline07:52 AM354133 28 29 75 29.91 10 6W17 @ 12:00 AM0 CLR
SPISPRINGFIELD07:52 AM373735 29 31 72 29.96 10 7WSW22.593382 @ 02:58 AM0 0 CLR
PWKPALWAUKEE07:52 AM374037 27 32 67 29.84 10 6SW20 @ 12:52 AM0 CLR
ORDCHICAGO O HARE07:51 AM353935 26 27 69 29.83 10 9SW28 @ 12:51 AM0 FEW 15000
UGNWAUKEGAN07:51 AM363936 27 28 70 29.8 10 11G17WSW23 @ 12:51 AM0 CLR
ALNALTON/ST LOUIS R07:50 AM363934 32 31 87 30.01 10 5SW20 @ 12:55 AM0 CLR
LOTROMEOVILLE/CHI07:45 AM363936 30 27 81 29.87 10 11SSW24 @ 12:55 AM0 SCT 20000
MWAMARION REGIONAL07:45 AM374035 32 32 81 30.07 20 6SSW18 @ 01:15 AM0 SCT 15000
HSBHARRISBURG01 Feb 03:47 -06:00Site Offline
ENLCENTRALIASite Offline
CGXCHICAGO/MEIGSSite Offline
OLYOLNEY-NOBLESite Offline
SLOSALEM/LECKRONESite Offline